createdAt,value
2022-12-28T00:02:35.590Z,9.98
2022-12-28T00:07:32.202Z,9.98
2022-12-28T00:12:28.922Z,9.85
2022-12-28T00:17:25.497Z,9.83
2022-12-28T00:22:28.087Z,9.92
2022-12-28T00:27:24.605Z,9.77
2022-12-28T00:32:21.409Z,9.71
2022-12-28T00:37:19.424Z,9.65
2022-12-28T00:42:16.774Z,9.64
2022-12-28T00:47:13.310Z,9.74
2022-12-28T00:52:12.281Z,9.71
2022-12-28T00:57:08.901Z,9.61
2022-12-28T01:02:06.957Z,9.65
2022-12-28T01:07:03.677Z,9.60
2022-12-28T01:12:03.568Z,9.75
2022-12-28T01:17:00.154Z,9.47
2022-12-28T01:21:57.701Z,9.38
2022-12-28T01:26:54.360Z,9.34
2022-12-28T01:31:51.226Z,9.60
2022-12-28T01:36:47.854Z,9.85
2022-12-28T01:41:45.751Z,10.05
2022-12-28T01:46:45.605Z,10.14
2022-12-28T01:51:47.702Z,10.11
2022-12-28T01:56:48.272Z,10.03
2022-12-28T02:01:46.977Z,10.00
2022-12-28T02:06:43.780Z,9.99
2022-12-28T02:11:43.522Z,10.00
2022-12-28T02:16:42.996Z,9.86
2022-12-28T02:21:50.138Z,9.73
2022-12-28T02:26:53.912Z,9.26
2022-12-28T02:31:58.808Z,9.16
2022-12-28T02:36:58.238Z,9.20
2022-12-28T02:41:55.978Z,9.23
2022-12-28T02:47:11.069Z,9.06
2022-12-28T02:52:11.984Z,8.82
2022-12-28T02:57:13.263Z,8.51
2022-12-28T03:02:28.898Z,8.25
2022-12-28T03:07:47.135Z,8.42
2022-12-28T03:12:48.027Z,8.44
2022-12-28T03:18:04.696Z,8.41
2022-12-28T03:23:20.912Z,8.26
2022-12-28T03:28:38.041Z,8.22
2022-12-28T03:33:38.354Z,8.29
2022-12-28T03:38:39.400Z,8.43
2022-12-28T03:43:41.705Z,8.14
2022-12-28T03:48:42.392Z,8.17
2022-12-28T03:53:40.760Z,8.18
2022-12-28T03:58:41.976Z,8.17
2022-12-28T04:03:39.052Z,7.97
2022-12-28T04:08:36.755Z,8.05
2022-12-28T04:13:35.051Z,8.16
2022-12-28T04:18:39.249Z,8.06
2022-12-28T04:23:39.069Z,8.15
2022-12-28T04:29:00.156Z,7.94
2022-12-28T04:33:59.614Z,7.85
2022-12-28T04:38:59.151Z,8.03
2022-12-28T04:43:56.001Z,8.07
2022-12-28T04:48:52.532Z,8.03
2022-12-28T04:53:49.349Z,7.94
2022-12-28T04:58:47.049Z,8.02
2022-12-28T05:03:48.211Z,8.00
2022-12-28T05:08:49.556Z,7.80
2022-12-28T05:13:46.886Z,7.85
2022-12-28T05:18:44.194Z,7.90
2022-12-28T05:23:41.059Z,7.75
2022-12-28T05:28:38.149Z,7.84
2022-12-28T05:33:35.707Z,7.74
2022-12-28T05:38:32.667Z,7.70
2022-12-28T05:43:33.030Z,7.71
2022-12-28T05:48:33.380Z,7.52
2022-12-28T05:53:31.476Z,7.42
2022-12-28T05:58:28.200Z,7.43
2022-12-28T06:03:24.999Z,7.34
2022-12-28T06:08:44.692Z,7.45
2022-12-28T06:13:41.532Z,7.50
2022-12-28T06:18:38.348Z,7.31
2022-12-28T06:23:36.357Z,7.43
2022-12-28T06:28:33.291Z,7.61
2022-12-28T06:33:34.919Z,7.49
2022-12-28T06:38:32.483Z,7.38
2022-12-28T06:43:31.368Z,7.41
2022-12-28T06:48:28.273Z,7.51
2022-12-28T06:53:24.986Z,7.45
2022-12-28T06:58:21.472Z,7.53
2022-12-28T07:03:19.084Z,7.59
2022-12-28T07:08:18.534Z,7.62
2022-12-28T07:13:21.872Z,7.67
2022-12-28T07:18:24.129Z,7.65
2022-12-28T07:23:20.683Z,7.78
2022-12-28T07:28:17.330Z,7.66
2022-12-28T07:33:18.250Z,7.74
2022-12-28T07:38:21.585Z,7.76
2022-12-28T07:43:21.772Z,7.82
2022-12-28T07:48:21.080Z,7.67
2022-12-28T07:53:22.062Z,7.73
2022-12-28T07:58:19.207Z,7.95
2022-12-28T08:03:18.568Z,7.83
2022-12-28T08:08:19.237Z,7.88
2022-12-28T08:13:16.221Z,7.96
2022-12-28T08:18:13.213Z,7.78
2022-12-28T08:23:12.280Z,7.93
2022-12-28T08:28:10.956Z,7.87
2022-12-28T08:33:07.634Z,8.22
2022-12-28T08:38:04.633Z,8.36
2022-12-28T08:43:01.759Z,8.47
2022-12-28T08:47:59.016Z,8.48
2022-12-28T08:52:55.873Z,8.61
2022-12-28T08:57:53.881Z,8.75
2022-12-28T09:02:50.549Z,8.83
2022-12-28T09:07:49.265Z,9.05
2022-12-28T09:12:46.025Z,9.03
2022-12-28T09:17:42.614Z,9.13
2022-12-28T09:22:39.319Z,9.06
2022-12-28T09:27:37.234Z,9.01
2022-12-28T09:32:34.073Z,9.23
2022-12-28T09:37:30.676Z,9.22
2022-12-28T09:42:28.757Z,9.36
2022-12-28T09:47:31.883Z,9.45
2022-12-28T09:52:31.980Z,9.60
2022-12-28T09:57:32.193Z,9.68
2022-12-28T10:02:35.802Z,9.70
2022-12-28T10:07:35.282Z,9.89
2022-12-28T10:12:31.927Z,10.02
2022-12-28T10:17:29.835Z,10.08
2022-12-28T10:22:32.091Z,10.06
2022-12-28T10:27:30.857Z,10.13
2022-12-28T10:32:47.231Z,10.25
2022-12-28T10:37:44.584Z,10.41
2022-12-28T10:42:45.947Z,10.80
2022-12-28T10:47:43.930Z,10.55
2022-12-28T10:52:42.183Z,10.58
2022-12-28T10:58:02.947Z,10.76
2022-12-28T11:02:56.127Z,10.85
2022-12-28T11:08:03.626Z,10.79
2022-12-28T11:13:01.305Z,10.74
2022-12-28T11:17:59.246Z,11.05
2022-12-28T11:22:56.322Z,11.06
2022-12-28T11:27:52.849Z,10.89
2022-12-28T11:32:52.336Z,11.06
2022-12-28T11:37:49.559Z,11.14
2022-12-28T11:42:53.732Z,11.37
2022-12-28T11:47:53.241Z,11.31
2022-12-28T11:52:52.710Z,11.26
2022-12-28T11:57:50.042Z,11.75
2022-12-28T12:02:48.022Z,11.94
2022-12-28T12:07:46.689Z,11.36
2022-12-28T12:12:48.839Z,11.53
2022-12-28T12:17:47.507Z,10.99
2022-12-28T12:22:47.337Z,11.56
2022-12-28T12:27:46.815Z,11.57
2022-12-28T12:32:46.945Z,11.36
2022-12-28T12:37:50.311Z,11.94
2022-12-28T12:42:58.622Z,11.70
2022-12-28T12:48:08.652Z,11.45
2022-12-28T12:53:08.152Z,11.46
2022-12-28T12:58:08.617Z,11.12
2022-12-28T13:03:16.771Z,11.12
2022-12-28T13:08:19.849Z,11.08
2022-12-28T13:13:21.566Z,11.22
2022-12-28T13:18:43.998Z,11.19
2022-12-28T13:23:42.723Z,11.21
2022-12-28T13:28:45.624Z,11.24
2022-12-28T13:33:42.588Z,11.20
2022-12-28T13:38:39.443Z,11.34
2022-12-28T13:44:05.107Z,11.13
2022-12-28T13:49:01.890Z,11.13
2022-12-28T13:54:00.720Z,11.10
2022-12-28T13:59:03.041Z,11.09
2022-12-28T14:04:33.774Z,11.09
2022-12-28T14:09:19.061Z,10.95
2022-12-28T14:14:16.989Z,11.05
2022-12-28T14:19:14.052Z,10.90
2022-12-28T14:24:11.687Z,10.91
2022-12-28T14:29:12.889Z,10.83
2022-12-28T14:34:20.269Z,10.93
2022-12-28T14:39:22.991Z,10.94
2022-12-28T14:44:25.091Z,10.93
2022-12-28T14:49:31.254Z,10.90
2022-12-28T14:54:29.355Z,10.95
2022-12-28T14:59:27.565Z,10.97
2022-12-28T15:04:25.674Z,10.91
2022-12-28T15:09:25.319Z,10.85
2022-12-28T15:14:22.884Z,10.78
2022-12-28T15:19:19.536Z,10.66
2022-12-28T15:24:20.970Z,10.72
2022-12-28T15:29:39.602Z,10.66
2022-12-28T15:34:38.837Z,10.61
2022-12-28T15:39:37.087Z,10.64
2022-12-28T15:44:34.519Z,10.57
2022-12-28T15:49:32.688Z,10.32
2022-12-28T15:54:31.230Z,10.41
2022-12-28T15:59:28.214Z,10.45
2022-12-28T16:04:25.568Z,10.18
2022-12-28T16:09:22.251Z,10.11
2022-12-28T16:14:19.075Z,10.27
2022-12-28T16:19:15.768Z,10.25
2022-12-28T16:24:15.177Z,10.23
2022-12-28T16:29:11.729Z,10.05
2022-12-28T16:34:16.802Z,9.89
2022-12-28T16:39:15.814Z,9.63
2022-12-28T16:44:15.084Z,9.78
2022-12-28T16:49:11.635Z,9.91
2022-12-28T16:54:08.650Z,9.74
2022-12-28T16:59:05.891Z,9.58
2022-12-28T17:04:04.344Z,9.64
2022-12-28T17:09:01.715Z,9.69
2022-12-28T17:14:04.539Z,9.73
2022-12-28T17:19:04.395Z,9.76
2022-12-28T17:24:01.169Z,9.47
2022-12-28T17:28:58.180Z,9.42
2022-12-28T17:33:57.734Z,9.58
2022-12-28T17:38:55.045Z,9.72
2022-12-28T17:43:52.192Z,9.56
2022-12-28T17:48:48.905Z,9.01
2022-12-28T17:53:52.233Z,9.08
2022-12-28T17:58:53.632Z,8.66
2022-12-28T18:03:50.308Z,8.71
2022-12-28T18:08:47.113Z,8.59
2022-12-28T18:13:45.698Z,8.65
2022-12-28T18:18:44.078Z,8.66
2022-12-28T18:23:40.787Z,8.83
2022-12-28T18:28:39.991Z,8.88
2022-12-28T18:33:36.827Z,8.84
2022-12-28T18:38:36.248Z,9.02
2022-12-28T18:43:32.891Z,8.93
2022-12-28T18:48:30.183Z,9.12
2022-12-28T18:53:27.758Z,9.24
2022-12-28T18:58:25.397Z,8.99
2022-12-28T19:03:25.736Z,8.76
2022-12-28T19:08:22.455Z,8.90
2022-12-28T19:13:19.525Z,8.95
2022-12-28T19:18:16.865Z,7.90
2022-12-28T19:23:13.710Z,8.00
2022-12-28T19:28:12.254Z,8.25
2022-12-28T19:33:08.977Z,8.41
2022-12-28T19:38:06.366Z,7.90
2022-12-28T19:43:03.908Z,8.02
2022-12-28T19:48:00.516Z,7.80
2022-12-28T19:52:57.139Z,8.10
2022-12-28T19:57:54.603Z,8.25
2022-12-28T20:02:51.383Z,8.32
2022-12-28T20:07:52.035Z,8.43
2022-12-28T20:12:51.099Z,8.23
2022-12-28T20:17:48.530Z,7.55
2022-12-28T20:22:45.084Z,7.60
2022-12-28T20:27:42.134Z,7.62
2022-12-28T20:32:44.577Z,7.80
2022-12-28T20:37:42.483Z,7.68
2022-12-28T20:42:56.989Z,6.99
2022-12-28T20:47:54.016Z,6.83
2022-12-28T20:52:52.921Z,6.73
2022-12-28T20:57:49.495Z,5.96
2022-12-28T21:02:46.128Z,5.63
2022-12-28T21:07:42.692Z,5.98
2022-12-28T21:12:40.117Z,5.69
2022-12-28T21:17:36.765Z,5.78
2022-12-28T21:22:33.357Z,5.83
2022-12-28T21:27:33.374Z,6.15
2022-12-28T21:32:30.796Z,6.15
2022-12-28T21:37:36.261Z,6.63
2022-12-28T21:42:33.207Z,6.79
2022-12-28T21:47:30.371Z,7.17
2022-12-28T21:52:29.045Z,7.17
2022-12-28T21:57:25.649Z,7.04
2022-12-28T22:02:40.700Z,7.02
2022-12-28T22:07:38.067Z,6.60
2022-12-28T22:12:36.185Z,6.88
2022-12-28T22:17:32.791Z,6.99
2022-12-28T22:22:29.309Z,6.97
2022-12-28T22:27:26.552Z,7.15
2022-12-28T22:32:23.446Z,7.34
2022-12-28T22:37:20.436Z,7.59
2022-12-28T22:42:17.102Z,7.58
2022-12-28T22:47:14.426Z,7.69
2022-12-28T22:52:11.422Z,7.86
2022-12-28T22:57:07.978Z,7.87
2022-12-28T23:02:06.785Z,7.81
2022-12-28T23:07:04.623Z,7.34
2022-12-28T23:12:01.291Z,7.00
2022-12-28T23:16:59.721Z,7.01
2022-12-28T23:22:14.576Z,6.58
2022-12-28T23:27:21.101Z,6.73
2022-12-28T23:32:17.702Z,6.55
2022-12-28T23:37:14.197Z,6.88
2022-12-28T23:42:14.387Z,6.28
2022-12-28T23:47:10.849Z,5.56
2022-12-28T23:52:07.337Z,5.39
2022-12-28T23:57:04.285Z,4.97
